createdAt,value
2023-02-11T00:02:01.931Z,101696.47
2023-02-11T00:04:29.761Z,101703.56
2023-02-11T00:06:59.175Z,101700.34
2023-02-11T00:09:27.419Z,101705.50
2023-02-11T00:11:55.020Z,101695.78
2023-02-11T00:14:23.104Z,101693.66
2023-02-11T00:16:51.085Z,101682.91
2023-02-11T00:19:18.991Z,101692.81
2023-02-11T00:21:46.580Z,101694.25
2023-02-11T00:24:16.185Z,101695.09
2023-02-11T00:26:43.817Z,101689.06
2023-02-11T00:29:14.169Z,101687.63
2023-02-11T00:31:41.944Z,101681.41
2023-02-11T00:34:10.048Z,101679.00
2023-02-11T00:36:37.579Z,101683.06
2023-02-11T00:39:05.755Z,101683.06
2023-02-11T00:41:34.997Z,101691.19
2023-02-11T00:44:03.724Z,101690.00
2023-02-11T00:46:31.758Z,101687.13
2023-02-11T00:48:59.598Z,101688.47
2023-02-11T00:51:28.930Z,101673.97
2023-02-11T00:53:57.404Z,101668.41
2023-02-11T00:56:25.375Z,101663.97
2023-02-11T00:58:55.118Z,101665.03
2023-02-11T01:01:23.198Z,101659.53
2023-02-11T01:03:51.526Z,101659.84
2023-02-11T01:06:19.080Z,101654.78
2023-02-11T01:08:47.457Z,101657.44
2023-02-11T01:11:18.135Z,101657.84
2023-02-11T01:13:47.885Z,101653.91
2023-02-11T01:16:18.180Z,101651.03
2023-02-11T01:18:46.668Z,101652.75
2023-02-11T01:21:14.345Z,101635.34
2023-02-11T01:23:42.616Z,101622.50
2023-02-11T01:26:12.275Z,101609.72
2023-02-11T01:28:40.293Z,101619.84
2023-02-11T01:31:08.108Z,101612.75
2023-02-11T01:33:37.730Z,101622.22
2023-02-11T01:36:07.353Z,101613.53
2023-02-11T01:38:36.141Z,101610.97
2023-02-11T01:41:06.340Z,101594.34
2023-02-11T01:43:38.288Z,101588.56
2023-02-11T01:46:20.376Z,101585.44
2023-02-11T01:48:53.344Z,101578.22
2023-02-11T01:51:24.995Z,101571.56
2023-02-11T01:53:54.220Z,101569.63
2023-02-11T01:56:24.151Z,101562.72
2023-02-11T01:58:55.720Z,101563.75
2023-02-11T02:01:28.332Z,101547.09
2023-02-11T02:04:01.826Z,101556.72
2023-02-11T02:06:34.615Z,101546.84
2023-02-11T02:09:06.655Z,101544.44
2023-02-11T02:11:34.435Z,101553.72
2023-02-11T02:14:02.507Z,101552.59
2023-02-11T02:16:33.475Z,101538.31
2023-02-11T02:19:24.995Z,101541.16
2023-02-11T02:22:16.945Z,101538.94
2023-02-11T02:25:17.431Z,101531.22
2023-02-11T02:27:55.473Z,101525.56
2023-02-11T02:30:50.389Z,101520.66
2023-02-11T02:33:38.248Z,101518.53
2023-02-11T02:36:14.816Z,101519.16
2023-02-11T02:38:50.903Z,101499.47
2023-02-11T02:41:23.280Z,101515.75
2023-02-11T02:43:51.886Z,101519.16
2023-02-11T02:46:22.905Z,101503.25
2023-02-11T02:48:53.618Z,101481.81
2023-02-11T02:51:59.036Z,101480.16
2023-02-11T02:54:51.876Z,101487.16
2023-02-11T02:57:29.844Z,101484.50
2023-02-11T03:00:09.653Z,101482.88
2023-02-11T03:02:47.680Z,101480.22
2023-02-11T03:05:22.846Z,101467.69
2023-02-11T03:07:57.036Z,101462.03
2023-02-11T03:10:29.137Z,101451.56
2023-02-11T03:12:58.246Z,101453.78
2023-02-11T03:15:28.551Z,101452.19
2023-02-11T03:18:00.628Z,101442.88
2023-02-11T03:20:33.277Z,101437.88
2023-02-11T03:23:06.233Z,101459.63
2023-02-11T03:25:38.211Z,101455.84
2023-02-11T03:28:13.716Z,101459.28
2023-02-11T03:30:48.259Z,101458.75
2023-02-11T03:33:24.160Z,101458.84
2023-02-11T03:35:56.805Z,101459.63
2023-02-11T03:38:30.986Z,101456.13
2023-02-11T03:41:00.729Z,101460.31
2023-02-11T03:43:34.101Z,101455.09
2023-02-11T03:46:03.642Z,101464.25
2023-02-11T03:48:36.410Z,101464.94
2023-02-11T03:51:09.409Z,101448.47
2023-02-11T03:53:41.029Z,101446.00
2023-02-11T03:56:12.068Z,101449.78
2023-02-11T03:58:40.006Z,101457.56
2023-02-11T04:01:07.879Z,101442.16
2023-02-11T04:03:35.985Z,101432.16
2023-02-11T04:06:05.514Z,101441.84
2023-02-11T04:08:33.494Z,101432.06
2023-02-11T04:11:00.998Z,101434.97
2023-02-11T04:13:29.368Z,101428.22
2023-02-11T04:15:56.979Z,101419.56
2023-02-11T04:18:24.922Z,101410.59
2023-02-11T04:20:52.489Z,101410.69
2023-02-11T04:23:21.965Z,101399.72
2023-02-11T04:25:51.753Z,101397.53
2023-02-11T04:28:20.000Z,101393.16
2023-02-11T04:30:49.586Z,101387.78
2023-02-11T04:33:17.622Z,101389.03
2023-02-11T04:35:45.444Z,101403.50
2023-02-11T04:38:13.583Z,101391.16
2023-02-11T04:40:42.967Z,101389.13
2023-02-11T04:43:10.905Z,101393.63
2023-02-11T04:45:38.702Z,101396.91
2023-02-11T04:48:06.724Z,101388.03
2023-02-11T04:50:34.285Z,101388.19
2023-02-11T04:53:02.247Z,101401.19
2023-02-11T04:55:29.987Z,101388.16
2023-02-11T04:57:59.371Z,101385.34
2023-02-11T05:00:26.972Z,101383.25
2023-02-11T05:02:54.953Z,101384.75
2023-02-11T05:05:22.706Z,101386.38
2023-02-11T05:07:50.643Z,101385.13
2023-02-11T05:10:18.226Z,101378.63
2023-02-11T05:12:48.290Z,101372.56
2023-02-11T05:15:17.559Z,101367.75
2023-02-11T05:17:45.550Z,101359.97
2023-02-11T05:20:13.468Z,101351.75
2023-02-11T05:22:41.700Z,101346.72
2023-02-11T05:25:09.291Z,101345.03
2023-02-11T05:27:38.831Z,101341.84
2023-02-11T05:30:07.568Z,101352.34
2023-02-11T05:32:37.081Z,101336.38
2023-02-11T05:35:05.049Z,101341.44
2023-02-11T05:37:33.092Z,101340.03
2023-02-11T05:40:00.660Z,101325.31
2023-02-11T05:42:28.621Z,101344.47
2023-02-11T05:44:56.162Z,101334.13
2023-02-11T05:47:24.023Z,101340.78
2023-02-11T05:49:53.397Z,101340.00
2023-02-11T05:52:21.527Z,101343.16
2023-02-11T05:54:49.132Z,101338.34
2023-02-11T05:57:17.530Z,101337.53
2023-02-11T05:59:45.074Z,101331.22
2023-02-11T06:02:13.013Z,101333.69
2023-02-11T06:04:40.640Z,101328.81
2023-02-11T06:07:10.190Z,101327.28
2023-02-11T06:09:37.659Z,101330.38
2023-02-11T06:12:06.221Z,101325.84
2023-02-11T06:14:34.037Z,101327.53
2023-02-11T06:17:01.863Z,101323.53
2023-02-11T06:19:29.643Z,101317.31
2023-02-11T06:21:57.724Z,101325.91
2023-02-11T06:24:50.956Z,101323.63
2023-02-11T06:27:14.848Z,101320.50
2023-02-11T06:29:42.342Z,101320.81
2023-02-11T06:32:28.141Z,101326.78
2023-02-11T06:34:57.867Z,101331.59
2023-02-11T06:37:25.608Z,101328.41
2023-02-11T06:39:54.660Z,101337.53
2023-02-11T06:42:22.598Z,101331.84
2023-02-11T06:44:50.125Z,101331.16
2023-02-11T06:47:18.136Z,101323.28
2023-02-11T06:49:46.277Z,101324.03
2023-02-11T06:52:14.278Z,101324.13
2023-02-11T06:54:41.799Z,101324.75
2023-02-11T06:57:11.369Z,101328.06
2023-02-11T06:59:38.926Z,101328.91
2023-02-11T07:02:09.484Z,101329.75
2023-02-11T07:04:37.168Z,101323.22
2023-02-11T07:07:05.161Z,101318.16
2023-02-11T07:09:32.818Z,101309.00
2023-02-11T07:12:00.771Z,101299.88
2023-02-11T07:14:29.859Z,101298.53
2023-02-11T07:16:57.826Z,101288.66
2023-02-11T07:19:25.477Z,101295.03
2023-02-11T07:21:53.745Z,101286.66
2023-02-11T07:24:21.170Z,101288.47
2023-02-11T07:26:49.003Z,101305.66
2023-02-11T07:29:16.511Z,101297.00
2023-02-11T07:31:45.804Z,101287.91
2023-02-11T07:34:13.441Z,101284.19
2023-02-11T07:36:41.265Z,101286.72
2023-02-11T07:39:08.778Z,101286.88
2023-02-11T07:41:37.969Z,101279.94
2023-02-11T07:44:06.295Z,101283.16
2023-02-11T07:46:34.321Z,101285.22
2023-02-11T07:49:03.555Z,101284.47
2023-02-11T07:51:31.868Z,101283.94
2023-02-11T07:54:00.489Z,101283.63
2023-02-11T07:56:29.012Z,101285.69
2023-02-11T07:58:59.581Z,101286.34
2023-02-11T08:01:28.180Z,101288.88
2023-02-11T08:03:56.411Z,101296.88
2023-02-11T08:06:27.682Z,101302.66
2023-02-11T08:08:55.710Z,101301.84
2023-02-11T08:11:25.515Z,101301.03
2023-02-11T08:13:54.079Z,101306.03
2023-02-11T08:16:24.585Z,101302.75
2023-02-11T08:18:53.703Z,101310.22
2023-02-11T08:21:22.057Z,101310.13
2023-02-11T08:23:52.686Z,101313.03
2023-02-11T08:26:23.396Z,101315.03
2023-02-11T08:28:52.693Z,101317.81
2023-02-11T08:31:23.263Z,101325.69
2023-02-11T08:33:51.557Z,101329.97
2023-02-11T08:36:22.209Z,101324.22
2023-02-11T08:38:51.792Z,101325.81
2023-02-11T08:41:20.131Z,101326.66
2023-02-11T08:43:47.856Z,101321.09
2023-02-11T08:46:19.716Z,101320.38
2023-02-11T08:48:48.149Z,101321.78
2023-02-11T08:51:17.889Z,101320.81
2023-02-11T08:53:45.478Z,101312.72
2023-02-11T08:56:15.667Z,101307.00
2023-02-11T08:58:43.315Z,101303.25
2023-02-11T09:01:12.430Z,101297.72
2023-02-11T09:03:40.544Z,101280.34
2023-02-11T09:06:10.534Z,101272.88
2023-02-11T09:08:40.608Z,101264.56
2023-02-11T09:11:09.628Z,101273.69
2023-02-11T09:13:38.597Z,101277.00
2023-02-11T09:16:08.082Z,101275.00
2023-02-11T09:18:35.702Z,101267.00
2023-02-11T09:21:04.817Z,101261.44
2023-02-11T09:23:33.209Z,101258.25
2023-02-11T09:26:08.146Z,101257.69
2023-02-11T09:28:38.551Z,101258.63
2023-02-11T09:31:07.365Z,101253.44
2023-02-11T09:33:35.252Z,101255.56
2023-02-11T09:36:04.561Z,101250.84
2023-02-11T09:38:32.602Z,101250.50
2023-02-11T09:41:00.598Z,101243.63
2023-02-11T09:43:33.881Z,101238.94
2023-02-11T09:46:05.252Z,101237.91
2023-02-11T09:48:40.345Z,101234.31
2023-02-11T09:51:19.530Z,101222.81
2023-02-11T09:53:54.753Z,101221.00
2023-02-11T09:56:24.536Z,101218.81
2023-02-11T09:58:52.117Z,101217.16
2023-02-11T10:01:30.847Z,101213.16
2023-02-11T10:04:04.815Z,101222.75
2023-02-11T10:06:39.908Z,101233.63
2023-02-11T10:09:28.456Z,101231.38
2023-02-11T10:12:11.951Z,101216.31
2023-02-11T10:15:04.279Z,101217.88
2023-02-11T10:17:42.847Z,101206.00
2023-02-11T10:20:23.596Z,101201.84
2023-02-11T10:22:54.592Z,101205.59
2023-02-11T10:25:23.956Z,101211.38
2023-02-11T10:27:55.065Z,101210.78
2023-02-11T10:30:29.023Z,101212.63
2023-02-11T10:33:04.056Z,101203.22
2023-02-11T10:35:32.769Z,101204.78
2023-02-11T10:38:01.392Z,101197.50
2023-02-11T10:40:31.094Z,101187.91
2023-02-11T10:43:03.850Z,101197.75
2023-02-11T10:45:34.735Z,101215.75
2023-02-11T10:48:26.701Z,101205.06
2023-02-11T10:51:08.460Z,101185.59
2023-02-11T10:53:36.947Z,101196.66
2023-02-11T10:56:06.318Z,101205.03
2023-02-11T10:58:40.782Z,101213.25
2023-02-11T11:01:23.515Z,101220.94
2023-02-11T11:03:53.065Z,101228.81
2023-02-11T11:06:32.212Z,101224.16
2023-02-11T11:09:00.187Z,101223.78
2023-02-11T11:11:27.622Z,101222.53
2023-02-11T11:13:57.772Z,101216.63
2023-02-11T11:16:27.571Z,101212.97
2023-02-11T11:19:15.363Z,101218.53
2023-02-11T11:21:46.431Z,101202.78
2023-02-11T11:24:19.852Z,101201.69
2023-02-11T11:26:51.582Z,101191.00
2023-02-11T11:29:24.308Z,101193.06
2023-02-11T11:31:55.236Z,101195.03
2023-02-11T11:34:28.950Z,101200.03
2023-02-11T11:36:59.670Z,101200.81
2023-02-11T11:39:31.298Z,101187.56
2023-02-11T11:42:00.599Z,101181.88
2023-02-11T11:44:31.828Z,101179.09
2023-02-11T11:47:20.612Z,101174.94
2023-02-11T11:49:55.840Z,101182.22
2023-02-11T11:52:35.854Z,101191.47
2023-02-11T11:55:13.415Z,101191.97
2023-02-11T11:57:41.372Z,101187.59
2023-02-11T12:00:16.977Z,101184.06
2023-02-11T12:03:12.331Z,101188.09
2023-02-11T12:05:51.095Z,101190.25
2023-02-11T12:08:26.945Z,101187.84
2023-02-11T12:11:07.119Z,101180.81
2023-02-11T12:13:44.075Z,101178.59
2023-02-11T12:16:25.227Z,101172.91
2023-02-11T12:19:24.810Z,101159.66
2023-02-11T12:22:01.520Z,101157.25
2023-02-11T12:24:46.175Z,101154.94
2023-02-11T12:27:23.144Z,101149.47
2023-02-11T12:30:03.947Z,101134.78
2023-02-11T12:32:44.557Z,101133.94
2023-02-11T12:35:31.137Z,101148.03
2023-02-11T12:38:15.861Z,101161.47
2023-02-11T12:41:00.604Z,101155.28
2023-02-11T12:43:36.074Z,101137.94
2023-02-11T12:46:31.822Z,101127.72
2023-02-11T12:49:27.304Z,101139.03
2023-02-11T12:52:07.311Z,101127.00
2023-02-11T12:54:40.330Z,101112.06
2023-02-11T12:57:18.752Z,101117.44
2023-02-11T12:59:53.706Z,101107.09
2023-02-11T13:02:28.369Z,101108.81
2023-02-11T13:05:00.104Z,101115.47
2023-02-11T13:07:33.438Z,101118.03
2023-02-11T13:10:05.936Z,101135.63
2023-02-11T13:12:36.932Z,101130.41
2023-02-11T13:15:07.909Z,101130.53
2023-02-11T13:17:43.531Z,101135.28
2023-02-11T13:20:24.104Z,101127.84
2023-02-11T13:22:59.458Z,101132.94
2023-02-11T13:25:36.159Z,101131.50
2023-02-11T13:28:17.828Z,101139.13
2023-02-11T13:30:47.202Z,101136.38
2023-02-11T13:33:31.427Z,101142.06
2023-02-11T13:36:15.687Z,101133.81
2023-02-11T13:38:53.985Z,101132.22
2023-02-11T13:41:27.914Z,101131.88
2023-02-11T13:44:02.575Z,101130.78
2023-02-11T13:46:49.325Z,101132.34
2023-02-11T13:49:22.587Z,101127.88
2023-02-11T13:51:51.915Z,101131.38
2023-02-11T13:54:32.753Z,101145.72
2023-02-11T13:57:34.386Z,101135.03
2023-02-11T14:00:20.307Z,101127.97
2023-02-11T14:03:37.998Z,101124.22
2023-02-11T14:06:14.316Z,101139.03
2023-02-11T14:09:02.611Z,101135.84
2023-02-11T14:11:50.202Z,101128.34
2023-02-11T14:14:23.464Z,101128.09
2023-02-11T14:17:34.868Z,101140.00
2023-02-11T14:20:24.146Z,101144.84
2023-02-11T14:22:53.344Z,101139.25
2023-02-11T14:25:24.862Z,101149.31
2023-02-11T14:27:57.532Z,101141.81
2023-02-11T14:30:46.276Z,101147.50
2023-02-11T14:33:43.816Z,101151.00
2023-02-11T14:36:30.016Z,101155.63
2023-02-11T14:39:07.733Z,101157.91
2023-02-11T14:41:41.904Z,101158.03
2023-02-11T14:44:15.230Z,101160.81
2023-02-11T14:46:46.322Z,101166.53
2023-02-11T14:49:24.198Z,101175.97
2023-02-11T14:51:54.489Z,101176.06
2023-02-11T14:54:24.972Z,101185.31
2023-02-11T14:57:13.343Z,101183.25
2023-02-11T14:59:52.434Z,101192.94
2023-02-11T15:02:23.124Z,101188.81
2023-02-11T15:04:52.337Z,101187.69
2023-02-11T15:07:20.684Z,101188.41
2023-02-11T15:09:51.315Z,101193.44
2023-02-11T15:12:23.727Z,101191.63
2023-02-11T15:14:54.838Z,101202.66
2023-02-11T15:17:26.200Z,101195.25
2023-02-11T15:19:59.631Z,101201.38
2023-02-11T15:22:32.441Z,101200.31
2023-02-11T15:25:02.198Z,101201.38
2023-02-11T15:27:39.833Z,101202.63
2023-02-11T15:30:24.681Z,101216.00
2023-02-11T15:32:55.304Z,101211.97
2023-02-11T15:35:25.090Z,101219.34
2023-02-11T15:37:53.088Z,101217.38
2023-02-11T15:40:24.584Z,101217.06
2023-02-11T15:42:59.515Z,101215.09
2023-02-11T15:45:30.845Z,101220.59
2023-02-11T15:48:07.092Z,101224.22
2023-02-11T15:50:38.340Z,101228.97
2023-02-11T15:53:27.001Z,101231.50
2023-02-11T15:56:00.970Z,101230.47
2023-02-11T15:58:29.397Z,101239.63
2023-02-11T16:00:57.250Z,101238.13
2023-02-11T16:03:27.599Z,101234.22
2023-02-11T16:05:56.755Z,101223.31
2023-02-11T16:08:26.901Z,101227.69
2023-02-11T16:10:56.395Z,101232.28
2023-02-11T16:13:25.666Z,101234.53
2023-02-11T16:15:55.760Z,101240.63
2023-02-11T16:18:37.941Z,101246.34
2023-02-11T16:21:14.659Z,101239.03
2023-02-11T16:23:49.107Z,101231.81
2023-02-11T16:26:24.966Z,101223.75
2023-02-11T16:28:53.255Z,101228.13
2023-02-11T16:31:21.193Z,101224.94
2023-02-11T16:33:49.243Z,101228.56
2023-02-11T16:36:18.517Z,101227.31
2023-02-11T16:38:46.604Z,101228.13
2023-02-11T16:41:14.276Z,101244.13
2023-02-11T16:43:42.292Z,101234.81
2023-02-11T16:46:14.757Z,101242.31
2023-02-11T16:48:43.056Z,101247.22
2023-02-11T16:51:12.341Z,101250.09
2023-02-11T16:53:41.973Z,101244.34
2023-02-11T16:56:14.984Z,101256.38
2023-02-11T16:58:43.142Z,101261.84
2023-02-11T17:01:13.752Z,101257.91
2023-02-11T17:03:42.286Z,101265.16
2023-02-11T17:06:11.039Z,101268.75
2023-02-11T17:08:39.038Z,101282.31
2023-02-11T17:11:08.246Z,101272.38
2023-02-11T17:13:36.228Z,101273.94
2023-02-11T17:16:03.970Z,101283.97
2023-02-11T17:18:31.964Z,101286.09
2023-02-11T17:20:59.578Z,101287.72
2023-02-11T17:23:27.630Z,101290.66
2023-02-11T17:25:56.287Z,101299.88
2023-02-11T17:28:25.736Z,101291.66
2023-02-11T17:30:53.326Z,101298.72
2023-02-11T17:33:21.678Z,101306.78
2023-02-11T17:35:49.428Z,101317.22
2023-02-11T17:38:17.570Z,101318.25
2023-02-11T17:40:45.098Z,101320.44
2023-02-11T17:43:13.082Z,101325.97
2023-02-11T17:45:42.951Z,101333.09
2023-02-11T17:48:11.055Z,101339.53
2023-02-11T17:50:38.703Z,101350.66
2023-02-11T17:53:06.868Z,101346.44
2023-02-11T17:55:35.276Z,101357.63
2023-02-11T17:58:03.567Z,101360.84
2023-02-11T18:00:31.454Z,101356.84
2023-02-11T18:03:00.983Z,101352.16
2023-02-11T18:05:29.018Z,101358.34
2023-02-11T18:07:57.000Z,101356.53
2023-02-11T18:10:24.570Z,101347.41
2023-02-11T18:12:52.727Z,101351.97
2023-02-11T18:15:20.231Z,101351.59
2023-02-11T18:17:48.304Z,101353.59
2023-02-11T18:20:17.851Z,101352.72
2023-02-11T18:22:45.832Z,101362.75
2023-02-11T18:25:14.690Z,101370.66
2023-02-11T18:27:43.020Z,101376.56
2023-02-11T18:30:15.880Z,101371.63
2023-02-11T18:32:43.881Z,101372.59
2023-02-11T18:35:14.842Z,101366.06
2023-02-11T18:37:44.769Z,101374.16
2023-02-11T18:40:13.780Z,101379.41
2023-02-11T18:42:41.793Z,101381.66
2023-02-11T18:45:12.631Z,101389.56
2023-02-11T18:47:41.099Z,101380.03
2023-02-11T18:50:10.509Z,101380.34
2023-02-11T18:52:38.629Z,101381.53
2023-02-11T18:55:09.192Z,101380.81
2023-02-11T18:57:37.388Z,101384.84
2023-02-11T19:00:05.918Z,101387.72
2023-02-11T19:02:34.730Z,101395.22
2023-02-11T19:05:02.502Z,101396.34
2023-02-11T19:07:30.789Z,101400.72
2023-02-11T19:09:58.456Z,101397.13
2023-02-11T19:12:28.267Z,101398.84
2023-02-11T19:14:55.968Z,101402.47
2023-02-11T19:17:24.035Z,101401.59
2023-02-11T19:19:51.718Z,101394.56
2023-02-11T19:22:19.691Z,101395.09
2023-02-11T19:24:47.470Z,101393.41
2023-02-11T19:27:15.474Z,101406.00
2023-02-11T19:29:44.681Z,101404.28
2023-02-11T19:32:12.729Z,101396.28
2023-02-11T19:34:40.543Z,101399.06
2023-02-11T19:37:08.923Z,101394.44
2023-02-11T19:39:36.743Z,101403.00
2023-02-11T19:42:05.014Z,101405.34
2023-02-11T19:44:32.699Z,101407.50
2023-02-11T19:47:02.323Z,101409.81
2023-02-11T19:49:30.039Z,101410.56
2023-02-11T19:51:58.045Z,101414.41
2023-02-11T19:54:28.703Z,101411.97
2023-02-11T19:56:57.235Z,101417.41
2023-02-11T19:59:25.315Z,101427.22
2023-02-11T20:01:53.324Z,101421.03
2023-02-11T20:04:22.332Z,101418.16
2023-02-11T20:06:50.337Z,101432.00
2023-02-11T20:09:18.197Z,101440.56
2023-02-11T20:11:46.632Z,101436.81
2023-02-11T20:14:14.705Z,101443.00
2023-02-11T20:16:48.583Z,101443.75
2023-02-11T20:19:19.547Z,101445.44
2023-02-11T20:21:51.757Z,101447.03
2023-02-11T20:24:20.488Z,101446.09
2023-02-11T20:26:49.333Z,101449.31
2023-02-11T20:29:18.068Z,101450.56
2023-02-11T20:31:46.370Z,101444.94
2023-02-11T20:34:14.390Z,101441.41
2023-02-11T20:36:42.548Z,101442.69
2023-02-11T20:39:12.218Z,101447.81
2023-02-11T20:41:40.189Z,101442.69
2023-02-11T20:44:10.368Z,101452.59
2023-02-11T20:46:39.887Z,101451.88
2023-02-11T20:49:07.959Z,101458.38
2023-02-11T20:51:36.260Z,101471.16
2023-02-11T20:54:04.220Z,101473.09
2023-02-11T20:56:36.780Z,101476.31
2023-02-11T20:59:05.387Z,101482.91
2023-02-11T21:01:35.711Z,101480.69
2023-02-11T21:04:05.389Z,101483.56
2023-02-11T21:06:36.590Z,101486.31
2023-02-11T21:09:06.627Z,101495.84
2023-02-11T21:11:36.268Z,101513.88
2023-02-11T21:14:04.088Z,101515.38
2023-02-11T21:16:32.742Z,101514.31
2023-02-11T21:19:01.097Z,101523.91
2023-02-11T21:21:30.140Z,101523.16
2023-02-11T21:23:58.381Z,101536.63
2023-02-11T21:29:10.828Z,101536.41
2023-02-11T21:31:39.995Z,101541.63
2023-02-11T21:34:08.916Z,101532.53
2023-02-11T21:36:38.295Z,101541.94
2023-02-11T21:39:05.841Z,101533.63
2023-02-11T21:41:35.115Z,101545.03
2023-02-11T21:44:05.754Z,101554.00
2023-02-11T21:46:40.589Z,101554.94
2023-02-11T21:49:08.623Z,101556.47
2023-02-11T21:51:37.121Z,101544.38
2023-02-11T21:54:05.158Z,101556.56
2023-02-11T21:56:33.255Z,101562.84
2023-02-11T21:59:00.839Z,101562.53
2023-02-11T22:01:31.079Z,101569.44
2023-02-11T22:04:01.684Z,101578.66
2023-02-11T22:06:33.364Z,101582.19
2023-02-11T22:09:03.208Z,101570.94
2023-02-11T22:11:31.535Z,101560.94
2023-02-11T22:13:59.477Z,101578.88
2023-02-11T22:16:28.728Z,101591.59
2023-02-11T22:18:57.221Z,101600.56
2023-02-11T22:21:27.155Z,101605.78
2023-02-11T22:23:56.069Z,101604.72
2023-02-11T22:26:26.470Z,101611.88
2023-02-11T22:28:54.775Z,101626.63
2023-02-11T22:31:25.065Z,101620.31
2023-02-11T22:33:52.837Z,101622.47
2023-02-11T22:36:23.265Z,101619.56
2023-02-11T22:38:53.192Z,101628.84
2023-02-11T22:41:22.931Z,101627.59
2023-02-11T22:43:50.676Z,101630.16
2023-02-11T22:46:20.060Z,101633.34
2023-02-11T22:48:48.502Z,101638.66
2023-02-11T22:51:18.631Z,101638.56
2023-02-11T22:53:51.445Z,101635.88
2023-02-11T22:56:20.001Z,101643.06
2023-02-11T22:58:48.094Z,101644.69
2023-02-11T23:01:16.113Z,101644.13
2023-02-11T23:03:44.174Z,101637.06
2023-02-11T23:06:12.386Z,101636.34
2023-02-11T23:08:41.105Z,101641.03
2023-02-11T23:11:13.679Z,101641.34
2023-02-11T23:13:42.402Z,101632.47
2023-02-11T23:16:11.942Z,101627.88
2023-02-11T23:18:41.972Z,101628.53
2023-02-11T23:21:12.854Z,101632.47
2023-02-11T23:23:40.475Z,101637.94
2023-02-11T23:26:11.626Z,101637.19
2023-02-11T23:28:39.866Z,101637.28
2023-02-11T23:31:16.799Z,101634.63
2023-02-11T23:33:44.575Z,101641.47
2023-02-11T23:36:13.283Z,101640.72
2023-02-11T23:38:40.802Z,101640.59
2023-02-11T23:41:10.345Z,101650.22
2023-02-11T23:43:38.087Z,101657.81
2023-02-11T23:46:07.284Z,101659.28
2023-02-11T23:48:34.788Z,101666.44
2023-02-11T23:51:02.831Z,101660.59
2023-02-11T23:53:30.330Z,101661.00
2023-02-11T23:55:58.483Z,101669.00
2023-02-11T23:58:27.517Z,101664.75
